sensor_id;sensor_type;location;lat;lon;timestamp;P1;durP1;ratioP1;P2;durP2;ratioP2
35917;SDS011;22011;59.912;30.300;2024-01-07T00:00:32;9.45;;;5.05;;
35917;SDS011;22011;59.912;30.300;2024-01-07T00:03:01;9.32;;;4.95;;
35917;SDS011;22011;59.912;30.300;2024-01-07T00:05:29;12.60;;;4.93;;
35917;SDS011;22011;59.912;30.300;2024-01-07T00:07:56;18.60;;;6.45;;
35917;SDS011;22011;59.912;30.300;2024-01-07T00:10:24;9.05;;;5.13;;
35917;SDS011;22011;59.912;30.300;2024-01-07T00:12:51;10.07;;;5.20;;
35917;SDS011;22011;59.912;30.300;2024-01-07T00:15:19;16.65;;;6.40;;
35917;SDS011;22011;59.912;30.300;2024-01-07T00:17:46;11.07;;;6.03;;
35917;SDS011;22011;59.912;30.300;2024-01-07T00:20:15;12.05;;;6.40;;
35917;SDS011;22011;59.912;30.300;2024-01-07T00:22:43;8.15;;;5.05;;
35917;SDS011;22011;59.912;30.300;2024-01-07T00:25:10;8.57;;;5.03;;
35917;SDS011;22011;59.912;30.300;2024-01-07T00:27:38;8.85;;;5.18;;
35917;SDS011;22011;59.912;30.300;2024-01-07T00:30:06;8.48;;;5.32;;
35917;SDS011;22011;59.912;30.300;2024-01-07T00:32:34;10.98;;;5.05;;
35917;SDS011;22011;59.912;30.300;2024-01-07T00:35:02;14.02;;;5.50;;
35917;SDS011;22011;59.912;30.300;2024-01-07T00:37:31;11.00;;;5.72;;
35917;SDS011;22011;59.912;30.300;2024-01-07T00:40:00;10.13;;;4.78;;
35917;SDS011;22011;59.912;30.300;2024-01-07T00:42:28;7.63;;;4.32;;
35917;SDS011;22011;59.912;30.300;2024-01-07T00:44:56;7.45;;;3.53;;
35917;SDS011;22011;59.912;30.300;2024-01-07T00:47:23;9.57;;;4.18;;
35917;SDS011;22011;59.912;30.300;2024-01-07T00:49:51;8.20;;;4.30;;
35917;SDS011;22011;59.912;30.300;2024-01-07T00:52:19;11.40;;;4.68;;
35917;SDS011;22011;59.912;30.300;2024-01-07T00:54:50;4.80;;;3.15;;
35917;SDS011;22011;59.912;30.300;2024-01-07T00:57:18;11.40;;;4.50;;
35917;SDS011;22011;59.912;30.300;2024-01-07T00:59:45;9.75;;;4.47;;
35917;SDS011;22011;59.912;30.300;2024-01-07T01:02:13;6.95;;;3.58;;
35917;SDS011;22011;59.912;30.300;2024-01-07T01:04:40;7.10;;;3.85;;
35917;SDS011;22011;59.912;30.300;2024-01-07T01:07:08;11.48;;;4.10;;
35917;SDS011;22011;59.912;30.300;2024-01-07T01:09:36;8.07;;;4.38;;
35917;SDS011;22011;59.912;30.300;2024-01-07T01:12:06;8.73;;;4.13;;
35917;SDS011;22011;59.912;30.300;2024-01-07T01:14:33;8.70;;;4.65;;
35917;SDS011;22011;59.912;30.300;2024-01-07T01:17:01;8.07;;;5.13;;
35917;SDS011;22011;59.912;30.300;2024-01-07T01:19:29;11.15;;;5.47;;
35917;SDS011;22011;59.912;30.300;2024-01-07T01:21:56;11.88;;;6.68;;
35917;SDS011;22011;59.912;30.300;2024-01-07T01:24:24;9.57;;;6.88;;
35917;SDS011;22011;59.912;30.300;2024-01-07T01:26:51;11.70;;;7.18;;
35917;SDS011;22011;59.912;30.300;2024-01-07T01:29:20;12.95;;;7.80;;
35917;SDS011;22011;59.912;30.300;2024-01-07T01:31:48;11.27;;;7.30;;
35917;SDS011;22011;59.912;30.300;2024-01-07T01:34:16;17.02;;;7.13;;
35917;SDS011;22011;59.912;30.300;2024-01-07T01:36:43;11.00;;;7.10;;
35917;SDS011;22011;59.912;30.300;2024-01-07T01:39:11;16.23;;;7.40;;
35917;SDS011;22011;59.912;30.300;2024-01-07T01:41:39;9.27;;;6.13;;
35917;SDS011;22011;59.912;30.300;2024-01-07T01:44:07;10.15;;;6.10;;
35917;SDS011;22011;59.912;30.300;2024-01-07T01:46:36;10.10;;;5.40;;
35917;SDS011;22011;59.912;30.300;2024-01-07T01:49:04;10.95;;;5.68;;
35917;SDS011;22011;59.912;30.300;2024-01-07T01:51:33;12.40;;;5.28;;
35917;SDS011;22011;59.912;30.300;2024-01-07T01:54:02;13.25;;;5.18;;
35917;SDS011;22011;59.912;30.300;2024-01-07T01:56:30;8.50;;;4.80;;
35917;SDS011;22011;59.912;30.300;2024-01-07T01:58:58;13.98;;;4.97;;
35917;SDS011;22011;59.912;30.300;2024-01-07T02:01:27;12.90;;;5.22;;
35917;SDS011;22011;59.912;30.300;2024-01-07T02:03:56;13.75;;;6.50;;
35917;SDS011;22011;59.912;30.300;2024-01-07T02:06:24;8.87;;;5.23;;
35917;SDS011;22011;59.912;30.300;2024-01-07T02:08:53;9.05;;;4.68;;
35917;SDS011;22011;59.912;30.300;2024-01-07T02:11:22;20.40;;;7.35;;
35917;SDS011;22011;59.912;30.300;2024-01-07T02:13:50;20.73;;;6.60;;
35917;SDS011;22011;59.912;30.300;2024-01-07T02:16:17;12.13;;;5.35;;
35917;SDS011;22011;59.912;30.300;2024-01-07T02:18:45;11.60;;;5.72;;
35917;SDS011;22011;59.912;30.300;2024-01-07T02:21:15;12.38;;;6.28;;
35917;SDS011;22011;59.912;30.300;2024-01-07T02:23:42;18.48;;;7.78;;
35917;SDS011;22011;59.912;30.300;2024-01-07T02:26:11;13.80;;;6.22;;
35917;SDS011;22011;59.912;30.300;2024-01-07T02:28:39;13.02;;;6.68;;
35917;SDS011;22011;59.912;30.300;2024-01-07T02:31:07;10.52;;;5.72;;
35917;SDS011;22011;59.912;30.300;2024-01-07T02:33:34;16.52;;;6.93;;
35917;SDS011;22011;59.912;30.300;2024-01-07T02:36:02;12.90;;;6.68;;
35917;SDS011;22011;59.912;30.300;2024-01-07T02:38:30;12.73;;;5.50;;
35917;SDS011;22011;59.912;30.300;2024-01-07T02:40:58;14.15;;;5.55;;
35917;SDS011;22011;59.912;30.300;2024-01-07T02:43:27;10.32;;;4.82;;
35917;SDS011;22011;59.912;30.300;2024-01-07T02:45:55;12.43;;;4.50;;
35917;SDS011;22011;59.912;30.300;2024-01-07T02:48:22;8.98;;;4.35;;
35917;SDS011;22011;59.912;30.300;2024-01-07T02:50:50;8.57;;;4.03;;
35917;SDS011;22011;59.912;30.300;2024-01-07T02:53:18;10.07;;;3.92;;
35917;SDS011;22011;59.912;30.300;2024-01-07T02:55:46;8.13;;;3.63;;
35917;SDS011;22011;59.912;30.300;2024-01-07T02:58:13;6.15;;;3.05;;
35917;SDS011;22011;59.912;30.300;2024-01-07T03:00:42;5.65;;;3.13;;
35917;SDS011;22011;59.912;30.300;2024-01-07T03:03:10;4.00;;;2.67;;
35917;SDS011;22011;59.912;30.300;2024-01-07T03:05:37;5.68;;;3.35;;
35917;SDS011;22011;59.912;30.300;2024-01-07T03:08:05;4.63;;;2.55;;
35917;SDS011;22011;59.912;30.300;2024-01-07T03:10:33;7.90;;;3.05;;
35917;SDS011;22011;59.912;30.300;2024-01-07T03:13:01;5.05;;;2.60;;
35917;SDS011;22011;59.912;30.300;2024-01-07T03:15:29;6.50;;;2.58;;
35917;SDS011;22011;59.912;30.300;2024-01-07T03:17:58;6.03;;;2.70;;
35917;SDS011;22011;59.912;30.300;2024-01-07T03:20:25;7.60;;;3.67;;
35917;SDS011;22011;59.912;30.300;2024-01-07T03:22:53;4.38;;;2.63;;
35917;SDS011;22011;59.912;30.300;2024-01-07T03:25:21;3.33;;;2.30;;
35917;SDS011;22011;59.912;30.300;2024-01-07T03:27:48;5.07;;;2.85;;
35917;SDS011;22011;59.912;30.300;2024-01-07T03:30:16;4.00;;;2.42;;
35917;SDS011;22011;59.912;30.300;2024-01-07T03:32:43;6.47;;;2.60;;
35917;SDS011;22011;59.912;30.300;2024-01-07T03:35:12;5.22;;;2.75;;
35917;SDS011;22011;59.912;30.300;2024-01-07T03:37:40;4.28;;;2.38;;
35917;SDS011;22011;59.912;30.300;2024-01-07T03:40:09;6.15;;;2.72;;
35917;SDS011;22011;59.912;30.300;2024-01-07T03:45:05;5.60;;;2.20;;
35917;SDS011;22011;59.912;30.300;2024-01-07T03:47:33;4.45;;;1.98;;
35917;SDS011;22011;59.912;30.300;2024-01-07T03:50:01;4.53;;;1.75;;
35917;SDS011;22011;59.912;30.300;2024-01-07T03:52:30;2.72;;;1.75;;
35917;SDS011;22011;59.912;30.300;2024-01-07T03:54:58;8.20;;;2.17;;
35917;SDS011;22011;59.912;30.300;2024-01-07T03:57:26;7.55;;;2.08;;
35917;SDS011;22011;59.912;30.300;2024-01-07T03:59:54;5.30;;;1.80;;
35917;SDS011;22011;59.912;30.300;2024-01-07T04:02:21;2.08;;;1.65;;
35917;SDS011;22011;59.912;30.300;2024-01-07T04:04:49;4.57;;;1.95;;
35917;SDS011;22011;59.912;30.300;2024-01-07T04:07:16;3.30;;;2.00;;
35917;SDS011;22011;59.912;30.300;2024-01-07T04:09:45;4.30;;;1.67;;
35917;SDS011;22011;59.912;30.300;2024-01-07T04:12:13;4.80;;;1.98;;
35917;SDS011;22011;59.912;30.300;2024-01-07T04:14:42;2.20;;;1.98;;
35917;SDS011;22011;59.912;30.300;2024-01-07T04:17:10;1.83;;;1.50;;
35917;SDS011;22011;59.912;30.300;2024-01-07T04:19:37;5.65;;;2.03;;
35917;SDS011;22011;59.912;30.300;2024-01-07T04:22:05;3.35;;;1.67;;
35917;SDS011;22011;59.912;30.300;2024-01-07T04:24:33;2.40;;;1.83;;
35917;SDS011;22011;59.912;30.300;2024-01-07T04:27:02;1.70;;;1.10;;
35917;SDS011;22011;59.912;30.300;2024-01-07T04:29:30;1.52;;;0.93;;
35917;SDS011;22011;59.912;30.300;2024-01-07T04:31:57;4.13;;;1.42;;
35917;SDS011;22011;59.912;30.300;2024-01-07T04:34:25;13.02;;;1.25;;
35917;SDS011;22011;59.912;30.300;2024-01-07T04:36:52;1.70;;;1.20;;
35917;SDS011;22011;59.912;30.300;2024-01-07T04:39:20;2.55;;;0.98;;
35917;SDS011;22011;59.912;30.300;2024-01-07T04:41:48;2.40;;;0.98;;
35917;SDS011;22011;59.912;30.300;2024-01-07T04:44:17;0.95;;;0.85;;
35917;SDS011;22011;59.912;30.300;2024-01-07T04:46:44;2.33;;;1.40;;
35917;SDS011;22011;59.912;30.300;2024-01-07T04:49:12;2.60;;;1.38;;
35917;SDS011;22011;59.912;30.300;2024-01-07T04:51:40;3.38;;;1.60;;
35917;SDS011;22011;59.912;30.300;2024-01-07T04:54:07;2.28;;;1.10;;
35917;SDS011;22011;59.912;30.300;2024-01-07T04:56:35;3.35;;;1.60;;
35917;SDS011;22011;59.912;30.300;2024-01-07T04:59:02;3.80;;;2.00;;
35917;SDS011;22011;59.912;30.300;2024-01-07T05:01:33;3.30;;;1.98;;
35917;SDS011;22011;59.912;30.300;2024-01-07T05:04:01;6.63;;;0.93;;
35917;SDS011;22011;59.912;30.300;2024-01-07T05:06:28;3.17;;;1.30;;
35917;SDS011;22011;59.912;30.300;2024-01-07T05:08:57;2.70;;;1.80;;
35917;SDS011;22011;59.912;30.300;2024-01-07T05:11:24;3.60;;;1.50;;
35917;SDS011;22011;59.912;30.300;2024-01-07T05:13:52;3.60;;;1.77;;
35917;SDS011;22011;59.912;30.300;2024-01-07T05:16:20;3.08;;;1.80;;
35917;SDS011;22011;59.912;30.300;2024-01-07T05:18:49;3.17;;;1.55;;
35917;SDS011;22011;59.912;30.300;2024-01-07T05:21:18;4.60;;;2.10;;
35917;SDS011;22011;59.912;30.300;2024-01-07T05:23:45;2.47;;;1.60;;
35917;SDS011;22011;59.912;30.300;2024-01-07T05:26:13;5.10;;;2.08;;
35917;SDS011;22011;59.912;30.300;2024-01-07T05:28:40;3.58;;;2.10;;
35917;SDS011;22011;59.912;30.300;2024-01-07T05:31:13;4.28;;;2.15;;
35917;SDS011;22011;59.912;30.300;2024-01-07T05:33:41;1.95;;;1.38;;
35917;SDS011;22011;59.912;30.300;2024-01-07T05:36:10;5.55;;;2.55;;
35917;SDS011;22011;59.912;30.300;2024-01-07T05:38:38;1.67;;;1.33;;
35917;SDS011;22011;59.912;30.300;2024-01-07T05:41:06;3.03;;;1.67;;
35917;SDS011;22011;59.912;30.300;2024-01-07T05:43:35;2.45;;;1.70;;
35917;SDS011;22011;59.912;30.300;2024-01-07T05:46:03;1.77;;;1.50;;
35917;SDS011;22011;59.912;30.300;2024-01-07T05:48:40;5.13;;;1.52;;
35917;SDS011;22011;59.912;30.300;2024-01-07T05:51:09;5.57;;;1.92;;
35917;SDS011;22011;59.912;30.300;2024-01-07T05:53:38;6.68;;;3.15;;
35917;SDS011;22011;59.912;30.300;2024-01-07T05:56:06;8.07;;;2.50;;
35917;SDS011;22011;59.912;30.300;2024-01-07T05:58:34;5.15;;;2.25;;
35917;SDS011;22011;59.912;30.300;2024-01-07T06:01:02;4.95;;;2.03;;
35917;SDS011;22011;59.912;30.300;2024-01-07T06:03:30;5.55;;;2.50;;
35917;SDS011;22011;59.912;30.300;2024-01-07T06:05:57;3.10;;;2.20;;
35917;SDS011;22011;59.912;30.300;2024-01-07T06:08:26;4.38;;;2.08;;
35917;SDS011;22011;59.912;30.300;2024-01-07T06:10:54;3.75;;;2.08;;
35917;SDS011;22011;59.912;30.300;2024-01-07T06:13:21;4.45;;;1.73;;
35917;SDS011;22011;59.912;30.300;2024-01-07T06:15:49;7.80;;;1.90;;
35917;SDS011;22011;59.912;30.300;2024-01-07T06:18:16;4.80;;;2.05;;
35917;SDS011;22011;59.912;30.300;2024-01-07T06:20:44;4.97;;;1.55;;
35917;SDS011;22011;59.912;30.300;2024-01-07T06:23:12;3.25;;;1.58;;
35917;SDS011;22011;59.912;30.300;2024-01-07T06:25:40;2.80;;;1.60;;
35917;SDS011;22011;59.912;30.300;2024-01-07T06:28:08;3.47;;;1.50;;
35917;SDS011;22011;59.912;30.300;2024-01-07T06:30:37;1.58;;;1.08;;
35917;SDS011;22011;59.912;30.300;2024-01-07T06:33:04;2.35;;;1.27;;
35917;SDS011;22011;59.912;30.300;2024-01-07T06:35:32;2.03;;;1.20;;
35917;SDS011;22011;59.912;30.300;2024-01-07T06:37:59;1.58;;;0.82;;
35917;SDS011;22011;59.912;30.300;2024-01-07T06:40:27;3.13;;;1.27;;
35917;SDS011;22011;59.912;30.300;2024-01-07T06:42:56;2.83;;;1.25;;
35917;SDS011;22011;59.912;30.300;2024-01-07T06:45:24;1.05;;;0.63;;
35917;SDS011;22011;59.912;30.300;2024-01-07T06:47:51;1.85;;;1.40;;
35917;SDS011;22011;59.912;30.300;2024-01-07T06:50:19;0.63;;;0.63;;
35917;SDS011;22011;59.912;30.300;2024-01-07T06:52:47;1.90;;;1.02;;
35917;SDS011;22011;59.912;30.300;2024-01-07T06:55:15;1.75;;;1.00;;
35917;SDS011;22011;59.912;30.300;2024-01-07T06:57:43;2.10;;;1.17;;
35917;SDS011;22011;59.912;30.300;2024-01-07T07:00:12;1.15;;;0.70;;
35917;SDS011;22011;59.912;30.300;2024-01-07T07:02:41;1.55;;;1.05;;
35917;SDS011;22011;59.912;30.300;2024-01-07T07:05:09;5.18;;;1.05;;
35917;SDS011;22011;59.912;30.300;2024-01-07T07:07:36;3.40;;;0.90;;
35917;SDS011;22011;59.912;30.300;2024-01-07T07:10:04;1.52;;;1.02;;
35917;SDS011;22011;59.912;30.300;2024-01-07T07:12:32;1.45;;;0.77;;
35917;SDS011;22011;59.912;30.300;2024-01-07T07:15:00;2.63;;;0.88;;
35917;SDS011;22011;59.912;30.300;2024-01-07T07:17:29;4.10;;;1.25;;
35917;SDS011;22011;59.912;30.300;2024-01-07T07:19:56;1.97;;;1.27;;
35917;SDS011;22011;59.912;30.300;2024-01-07T07:22:24;5.30;;;0.55;;
35917;SDS011;22011;59.912;30.300;2024-01-07T07:24:51;5.47;;;0.90;;
35917;SDS011;22011;59.912;30.300;2024-01-07T07:27:19;3.03;;;0.85;;
35917;SDS011;22011;59.912;30.300;2024-01-07T07:29:47;1.17;;;0.80;;
35917;SDS011;22011;59.912;30.300;2024-01-07T07:32:14;4.93;;;1.20;;
35917;SDS011;22011;59.912;30.300;2024-01-07T07:34:43;2.15;;;0.93;;
35917;SDS011;22011;59.912;30.300;2024-01-07T07:37:11;1.48;;;1.00;;
35917;SDS011;22011;59.912;30.300;2024-01-07T07:39:39;1.83;;;0.75;;
35917;SDS011;22011;59.912;30.300;2024-01-07T07:42:07;1.17;;;0.80;;
35917;SDS011;22011;59.912;30.300;2024-01-07T07:44:37;2.63;;;1.20;;
35917;SDS011;22011;59.912;30.300;2024-01-07T07:47:05;3.63;;;1.33;;
35917;SDS011;22011;59.912;30.300;2024-01-07T07:49:33;2.55;;;0.95;;
35917;SDS011;22011;59.912;30.300;2024-01-07T07:52:03;2.00;;;1.10;;
35917;SDS011;22011;59.912;30.300;2024-01-07T07:54:30;4.45;;;0.88;;
35917;SDS011;22011;59.912;30.300;2024-01-07T07:56:58;1.92;;;0.80;;
35917;SDS011;22011;59.912;30.300;2024-01-07T07:59:26;1.23;;;0.85;;
35917;SDS011;22011;59.912;30.300;2024-01-07T08:01:53;1.58;;;1.25;;
35917;SDS011;22011;59.912;30.300;2024-01-07T08:04:21;5.15;;;1.00;;
35917;SDS011;22011;59.912;30.300;2024-01-07T08:06:49;4.35;;;1.13;;
35917;SDS011;22011;59.912;30.300;2024-01-07T08:09:18;2.25;;;1.23;;
35917;SDS011;22011;59.912;30.300;2024-01-07T08:11:45;2.03;;;1.10;;
35917;SDS011;22011;59.912;30.300;2024-01-07T08:14:13;6.18;;;1.45;;
35917;SDS011;22011;59.912;30.300;2024-01-07T08:16:40;6.30;;;1.45;;
35917;SDS011;22011;59.912;30.300;2024-01-07T08:19:08;3.15;;;1.13;;
35917;SDS011;22011;59.912;30.300;2024-01-07T08:21:36;2.08;;;1.70;;
35917;SDS011;22011;59.912;30.300;2024-01-07T08:24:04;2.45;;;1.25;;
35917;SDS011;22011;59.912;30.300;2024-01-07T08:26:33;4.45;;;1.50;;
35917;SDS011;22011;59.912;30.300;2024-01-07T08:29:01;1.30;;;1.20;;
35917;SDS011;22011;59.912;30.300;2024-01-07T08:31:28;6.72;;;1.77;;
35917;SDS011;22011;59.912;30.300;2024-01-07T08:33:56;3.35;;;1.75;;
35917;SDS011;22011;59.912;30.300;2024-01-07T08:36:23;3.97;;;2.00;;
35917;SDS011;22011;59.912;30.300;2024-01-07T08:38:51;3.80;;;1.88;;
35917;SDS011;22011;59.912;30.300;2024-01-07T08:41:19;5.28;;;2.72;;
35917;SDS011;22011;59.912;30.300;2024-01-07T08:43:48;3.67;;;1.95;;
35917;SDS011;22011;59.912;30.300;2024-01-07T08:46:15;4.95;;;2.45;;
35917;SDS011;22011;59.912;30.300;2024-01-07T08:48:43;5.63;;;2.70;;
35917;SDS011;22011;59.912;30.300;2024-01-07T08:51:11;6.97;;;2.95;;
35917;SDS011;22011;59.912;30.300;2024-01-07T08:53:38;7.55;;;2.85;;
35917;SDS011;22011;59.912;30.300;2024-01-07T08:56:06;4.32;;;2.10;;
35917;SDS011;22011;59.912;30.300;2024-01-07T08:58:34;2.83;;;1.55;;
35917;SDS011;22011;59.912;30.300;2024-01-07T09:01:04;4.25;;;1.58;;
35917;SDS011;22011;59.912;30.300;2024-01-07T09:03:32;4.30;;;1.90;;
35917;SDS011;22011;59.912;30.300;2024-01-07T09:05:59;3.25;;;1.85;;
35917;SDS011;22011;59.912;30.300;2024-01-07T09:08:28;4.03;;;1.38;;
35917;SDS011;22011;59.912;30.300;2024-01-07T09:10:56;7.68;;;1.83;;
35917;SDS011;22011;59.912;30.300;2024-01-07T09:13:26;3.10;;;0.93;;
35917;SDS011;22011;59.912;30.300;2024-01-07T09:15:53;6.65;;;1.75;;
35917;SDS011;22011;59.912;30.300;2024-01-07T09:18:22;3.30;;;1.80;;
35917;SDS011;22011;59.912;30.300;2024-01-07T09:20:50;2.95;;;1.55;;
35917;SDS011;22011;59.912;30.300;2024-01-07T09:23:18;2.60;;;1.20;;
35917;SDS011;22011;59.912;30.300;2024-01-07T09:25:49;2.88;;;1.55;;
35917;SDS011;22011;59.912;30.300;2024-01-07T09:28:16;4.60;;;0.90;;
35917;SDS011;22011;59.912;30.300;2024-01-07T09:30:44;1.13;;;0.55;;
35917;SDS011;22011;59.912;30.300;2024-01-07T09:33:12;2.60;;;1.02;;
35917;SDS011;22011;59.912;30.300;2024-01-07T09:35:42;2.45;;;1.08;;
35917;SDS011;22011;59.912;30.300;2024-01-07T09:38:10;2.58;;;1.15;;
35917;SDS011;22011;59.912;30.300;2024-01-07T09:40:38;2.80;;;1.02;;
35917;SDS011;22011;59.912;30.300;2024-01-07T09:43:06;3.42;;;1.15;;
35917;SDS011;22011;59.912;30.300;2024-01-07T09:45:35;4.05;;;1.20;;
35917;SDS011;22011;59.912;30.300;2024-01-07T09:48:05;2.67;;;1.10;;
35917;SDS011;22011;59.912;30.300;2024-01-07T09:50:33;1.95;;;1.20;;
35917;SDS011;22011;59.912;30.300;2024-01-07T09:53:02;1.95;;;1.25;;
35917;SDS011;22011;59.912;30.300;2024-01-07T09:58:02;3.83;;;1.15;;
35917;SDS011;22011;59.912;30.300;2024-01-07T10:00:30;4.13;;;1.48;;
35917;SDS011;22011;59.912;30.300;2024-01-07T10:02:59;2.22;;;1.45;;
35917;SDS011;22011;59.912;30.300;2024-01-07T10:05:28;4.13;;;1.58;;
35917;SDS011;22011;59.912;30.300;2024-01-07T10:07:56;2.42;;;1.38;;
35917;SDS011;22011;59.912;30.300;2024-01-07T10:10:25;4.35;;;1.73;;
35917;SDS011;22011;59.912;30.300;2024-01-07T10:12:53;3.58;;;1.65;;
35917;SDS011;22011;59.912;30.300;2024-01-07T10:15:22;2.30;;;1.27;;
35917;SDS011;22011;59.912;30.300;2024-01-07T10:17:51;1.98;;;1.40;;
35917;SDS011;22011;59.912;30.300;2024-01-07T10:20:22;12.05;;;2.35;;
35917;SDS011;22011;59.912;30.300;2024-01-07T10:22:50;4.88;;;1.58;;
35917;SDS011;22011;59.912;30.300;2024-01-07T10:25:19;5.43;;;2.50;;
35917;SDS011;22011;59.912;30.300;2024-01-07T10:27:48;3.75;;;1.85;;
35917;SDS011;22011;59.912;30.300;2024-01-07T10:30:16;5.00;;;2.20;;
35917;SDS011;22011;59.912;30.300;2024-01-07T10:32:46;4.63;;;2.25;;
35917;SDS011;22011;59.912;30.300;2024-01-07T10:35:14;4.47;;;1.88;;
35917;SDS011;22011;59.912;30.300;2024-01-07T10:37:48;1.88;;;1.23;;
35917;SDS011;22011;59.912;30.300;2024-01-07T10:40:16;5.18;;;1.63;;
35917;SDS011;22011;59.912;30.300;2024-01-07T10:42:44;1.67;;;1.10;;
35917;SDS011;22011;59.912;30.300;2024-01-07T10:45:13;2.90;;;1.58;;
35917;SDS011;22011;59.912;30.300;2024-01-07T10:47:41;2.47;;;1.38;;
35917;SDS011;22011;59.912;30.300;2024-01-07T10:50:16;3.90;;;2.38;;
35917;SDS011;22011;59.912;30.300;2024-01-07T10:52:48;3.55;;;1.90;;
35917;SDS011;22011;59.912;30.300;2024-01-07T10:55:17;4.50;;;1.88;;
35917;SDS011;22011;59.912;30.300;2024-01-07T10:57:47;3.23;;;1.80;;
35917;SDS011;22011;59.912;30.300;2024-01-07T11:00:17;2.73;;;1.47;;
35917;SDS011;22011;59.912;30.300;2024-01-07T11:02:49;5.05;;;1.92;;
35917;SDS011;22011;59.912;30.300;2024-01-07T11:05:24;5.25;;;2.38;;
35917;SDS011;22011;59.912;30.300;2024-01-07T11:07:59;5.18;;;2.40;;
35917;SDS011;22011;59.912;30.300;2024-01-07T11:10:31;3.55;;;1.77;;
35917;SDS011;22011;59.912;30.300;2024-01-07T11:13:05;2.30;;;1.63;;
35917;SDS011;22011;59.912;30.300;2024-01-07T11:15:51;5.75;;;2.53;;
35917;SDS011;22011;59.912;30.300;2024-01-07T11:18:21;5.05;;;2.28;;
35917;SDS011;22011;59.912;30.300;2024-01-07T11:20:49;2.17;;;1.45;;
35917;SDS011;22011;59.912;30.300;2024-01-07T11:23:27;5.40;;;1.83;;
35917;SDS011;22011;59.912;30.300;2024-01-07T11:25:57;3.20;;;1.63;;
35917;SDS011;22011;59.912;30.300;2024-01-07T11:28:44;2.13;;;1.45;;
35917;SDS011;22011;59.912;30.300;2024-01-07T11:31:18;4.85;;;1.50;;
35917;SDS011;22011;59.912;30.300;2024-01-07T11:33:47;2.63;;;1.55;;
35917;SDS011;22011;59.912;30.300;2024-01-07T11:36:16;5.45;;;1.42;;
35917;SDS011;22011;59.912;30.300;2024-01-07T11:38:44;4.93;;;1.67;;
35917;SDS011;22011;59.912;30.300;2024-01-07T11:41:12;2.15;;;1.42;;
35917;SDS011;22011;59.912;30.300;2024-01-07T11:43:53;3.13;;;1.80;;
35917;SDS011;22011;59.912;30.300;2024-01-07T11:46:24;2.00;;;1.35;;
35917;SDS011;22011;59.912;30.300;2024-01-07T11:48:52;3.97;;;1.52;;
35917;SDS011;22011;59.912;30.300;2024-01-07T11:51:24;2.10;;;1.20;;
35917;SDS011;22011;59.912;30.300;2024-01-07T11:53:52;4.30;;;1.95;;
35917;SDS011;22011;59.912;30.300;2024-01-07T11:56:20;2.78;;;0.88;;
35917;SDS011;22011;59.912;30.300;2024-01-07T11:58:47;1.67;;;1.10;;
35917;SDS011;22011;59.912;30.300;2024-01-07T12:01:15;1.55;;;1.08;;
35917;SDS011;22011;59.912;30.300;2024-01-07T12:03:44;2.22;;;1.20;;
35917;SDS011;22011;59.912;30.300;2024-01-07T12:06:12;1.77;;;1.10;;
35917;SDS011;22011;59.912;30.300;2024-01-07T12:08:41;3.80;;;1.17;;
35917;SDS011;22011;59.912;30.300;2024-01-07T12:11:11;3.65;;;1.10;;
35917;SDS011;22011;59.912;30.300;2024-01-07T12:13:39;2.67;;;1.30;;
35917;SDS011;22011;59.912;30.300;2024-01-07T12:16:08;5.18;;;1.52;;
35917;SDS011;22011;59.912;30.300;2024-01-07T12:18:37;1.42;;;1.10;;
35917;SDS011;22011;59.912;30.300;2024-01-07T12:21:06;2.05;;;1.48;;
35917;SDS011;22011;59.912;30.300;2024-01-07T12:23:34;2.30;;;1.08;;
35917;SDS011;22011;59.912;30.300;2024-01-07T12:26:07;2.83;;;1.48;;
35917;SDS011;22011;59.912;30.300;2024-01-07T12:28:35;3.20;;;1.42;;
35917;SDS011;22011;59.912;30.300;2024-01-07T12:31:03;6.32;;;1.40;;
35917;SDS011;22011;59.912;30.300;2024-01-07T12:33:32;2.22;;;1.25;;
35917;SDS011;22011;59.912;30.300;2024-01-07T12:36:00;1.40;;;1.20;;
35917;SDS011;22011;59.912;30.300;2024-01-07T12:38:30;2.58;;;1.60;;
35917;SDS011;22011;59.912;30.300;2024-01-07T12:40:57;2.58;;;1.00;;
35917;SDS011;22011;59.912;30.300;2024-01-07T12:43:25;2.35;;;1.17;;
35917;SDS011;22011;59.912;30.300;2024-01-07T12:45:53;2.65;;;1.17;;
35917;SDS011;22011;59.912;30.300;2024-01-07T12:48:39;1.10;;;1.00;;
35917;SDS011;22011;59.912;30.300;2024-01-07T12:51:07;3.55;;;0.98;;
35917;SDS011;22011;59.912;30.300;2024-01-07T12:53:37;1.33;;;1.10;;
35917;SDS011;22011;59.912;30.300;2024-01-07T12:56:05;4.63;;;1.60;;
35917;SDS011;22011;59.912;30.300;2024-01-07T12:58:33;2.53;;;1.00;;
35917;SDS011;22011;59.912;30.300;2024-01-07T13:01:01;3.67;;;1.98;;
35917;SDS011;22011;59.912;30.300;2024-01-07T13:03:28;2.92;;;1.40;;
35917;SDS011;22011;59.912;30.300;2024-01-07T13:05:59;3.97;;;1.83;;
35917;SDS011;22011;59.912;30.300;2024-01-07T13:08:30;2.42;;;1.42;;
35917;SDS011;22011;59.912;30.300;2024-01-07T13:11:00;2.35;;;1.13;;
35917;SDS011;22011;59.912;30.300;2024-01-07T13:13:28;3.08;;;1.30;;
35917;SDS011;22011;59.912;30.300;2024-01-07T13:15:56;3.67;;;1.45;;
35917;SDS011;22011;59.912;30.300;2024-01-07T13:18:27;1.67;;;1.10;;
35917;SDS011;22011;59.912;30.300;2024-01-07T13:20:54;1.77;;;1.50;;
35917;SDS011;22011;59.912;30.300;2024-01-07T13:23:22;3.97;;;1.13;;
35917;SDS011;22011;59.912;30.300;2024-01-07T13:25:49;2.88;;;1.40;;
35917;SDS011;22011;59.912;30.300;2024-01-07T13:28:19;2.15;;;1.10;;
35917;SDS011;22011;59.912;30.300;2024-01-07T13:30:46;4.63;;;1.75;;
35917;SDS011;22011;59.912;30.300;2024-01-07T13:33:14;3.70;;;1.50;;
35917;SDS011;22011;59.912;30.300;2024-01-07T13:35:43;1.30;;;1.05;;
35917;SDS011;22011;59.912;30.300;2024-01-07T13:38:11;3.15;;;1.30;;
35917;SDS011;22011;59.912;30.300;2024-01-07T13:40:38;6.78;;;1.52;;
35917;SDS011;22011;59.912;30.300;2024-01-07T13:43:06;3.20;;;2.03;;
35917;SDS011;22011;59.912;30.300;2024-01-07T13:45:35;5.13;;;2.13;;
35917;SDS011;22011;59.912;30.300;2024-01-07T13:48:03;3.70;;;1.38;;
35917;SDS011;22011;59.912;30.300;2024-01-07T13:53:01;4.65;;;1.75;;
35917;SDS011;22011;59.912;30.300;2024-01-07T13:55:47;3.03;;;1.70;;
35917;SDS011;22011;59.912;30.300;2024-01-07T13:58:15;3.13;;;1.73;;
35917;SDS011;22011;59.912;30.300;2024-01-07T14:00:44;3.60;;;1.70;;
35917;SDS011;22011;59.912;30.300;2024-01-07T14:03:12;3.08;;;1.50;;
35917;SDS011;22011;59.912;30.300;2024-01-07T14:05:40;2.92;;;1.52;;
35917;SDS011;22011;59.912;30.300;2024-01-07T14:08:08;3.05;;;1.63;;
35917;SDS011;22011;59.912;30.300;2024-01-07T14:10:36;3.70;;;1.85;;
35917;SDS011;22011;59.912;30.300;2024-01-07T14:13:04;4.45;;;1.63;;
35917;SDS011;22011;59.912;30.300;2024-01-07T14:15:32;3.47;;;1.88;;
35917;SDS011;22011;59.912;30.300;2024-01-07T14:18:02;3.75;;;1.77;;
35917;SDS011;22011;59.912;30.300;2024-01-07T14:20:30;3.95;;;1.40;;
35917;SDS011;22011;59.912;30.300;2024-01-07T14:22:58;5.57;;;1.92;;
35917;SDS011;22011;59.912;30.300;2024-01-07T14:25:28;4.70;;;1.40;;
35917;SDS011;22011;59.912;30.300;2024-01-07T14:27:56;3.53;;;1.75;;
35917;SDS011;22011;59.912;30.300;2024-01-07T14:30:24;4.78;;;1.63;;
35917;SDS011;22011;59.912;30.300;2024-01-07T14:32:52;6.18;;;1.77;;
35917;SDS011;22011;59.912;30.300;2024-01-07T14:35:21;2.13;;;1.40;;
35917;SDS011;22011;59.912;30.300;2024-01-07T14:37:50;2.13;;;1.17;;
35917;SDS011;22011;59.912;30.300;2024-01-07T14:40:18;2.78;;;1.70;;
35917;SDS011;22011;59.912;30.300;2024-01-07T14:42:46;1.73;;;1.05;;
35917;SDS011;22011;59.912;30.300;2024-01-07T14:45:21;2.72;;;1.52;;
35917;SDS011;22011;59.912;30.300;2024-01-07T14:47:48;5.30;;;2.10;;